Lochristi, Belgium
Current Conditions -  °F | °C
As of 7:25 AM on Saturday 20 Dec 2014 (Local Time) from EHFS Reporting Station
Few Clouds Few Clouds  
Wind Chill: 38°   Ceiling: Unl
Heat Index: 46°   Visibility: 6mi
Dew Point: 39°   Wind: 26mph
Humidity: 76%   Direction: 270°W
Pressure: 30.12"   Gusts: NA
Location:  51.1°N, 3.83°E
Report Text: EHFS 200625Z AUTO 27023KT 9999 FEW025/// 08/04 Q1020
Loading
Personal Weather Stations






























Interactive Weather Map New forecast layout! Learn more

10-Day Weather Forecast

Advertisements
Track Severe Weather on mobile